Time;durP1;ratioP1;P1;durP2;ratioP2;P2;SDS_P1;SDS_P2;PMS_P1;PMS_P2;Temp;Humidity;BMP_temperature;BMP_pressure;BME280_temperature;BME280_humidity;BME280_pressure;Samples;Min_cycle;Max_cycle;Signal;HPM_P1;HPM_P2
2024/04/04 00:01:55;;;;;;;7.75;2.13;;;;;;;;;;5053946;28;20091;-56
2024/04/04 00:04:20;;;;;;;8.13;1.98;;;;;;;;;;5055567;28;20017;-58
2024/04/04 00:06:46;;;;;;;9.60;2.05;;;;;;;;;;5058418;28;20104;-55
2024/04/04 00:09:11;;;;;;;9.43;2.30;;;;;;;;;;5058634;28;20021;-56
2024/04/04 00:11:36;;;;;;;13.88;1.92;;;;;;;;;;5058282;28;20047;-58
2024/04/04 00:14:01;;;;;;;9.77;1.98;;;;;;;;;;5040446;28;20319;-58
2024/04/04 00:16:27;;;;;;;9.93;2.05;;;;;;;;;;5057865;28;20025;-59
2024/04/04 00:18:52;;;;;;;13.00;2.47;;;;;;;;;;5058290;28;20385;-58
2024/04/04 00:21:17;;;;;;;13.52;2.10;;;;;;;;;;5058284;28;20434;-58
2024/04/04 00:23:42;;;;;;;12.40;2.25;;;;;;;;;;5058148;28;20490;-57
2024/04/04 00:26:07;;;;;;;8.45;2.13;;;;;;;;;;5057915;28;20039;-59
2024/04/04 00:28:33;;;;;;;11.38;1.70;;;;;;;;;;5058299;28;20342;-56
2024/04/04 00:30:58;;;;;;;9.43;2.05;;;;;;;;;;5057904;28;20021;-59
2024/04/04 00:33:24;;;;;;;12.25;2.10;;;;;;;;;;5057967;28;20471;-59
2024/04/04 00:35:49;;;;;;;11.05;2.35;;;;;;;;;;5057956;28;20107;-55
2024/04/04 00:38:14;;;;;;;10.85;2.13;;;;;;;;;;5057980;28;20029;-58
2024/04/04 00:40:39;;;;;;;10.40;2.10;;;;;;;;;;5058057;28;20056;-58
2024/04/04 00:43:05;;;;;;;10.15;1.92;;;;;;;;;;5057809;28;20095;-58
2024/04/04 00:45:30;;;;;;;8.10;1.95;;;;;;;;;;5057754;28;20100;-58
2024/04/04 00:47:56;;;;;;;8.95;2.08;;;;;;;;;;5040088;28;20407;-58
2024/04/04 00:50:21;;;;;;;9.07;2.22;;;;;;;;;;5057212;28;20025;-56
2024/04/04 00:52:47;;;;;;;9.10;2.33;;;;;;;;;;5057863;28;20096;-59
2024/04/04 00:55:12;;;;;;;11.32;1.70;;;;;;;;;;5057559;28;20021;-59
2024/04/04 00:57:37;;;;;;;10.95;2.30;;;;;;;;;;5057355;28;20108;-57
2024/04/04 01:00:03;;;;;;;13.35;2.35;;;;;;;;;;5057665;28;20083;-57
2024/04/04 01:02:29;;;;;;;8.25;1.90;;;;;;;;;;5057428;28;20040;-59
2024/04/04 01:04:54;;;;;;;9.27;1.98;;;;;;;;;;5057196;28;20028;-58
2024/04/04 01:07:20;;;;;;;7.50;1.70;;;;;;;;;;5057134;28;20040;-59
2024/04/04 01:09:45;;;;;;;11.43;1.83;;;;;;;;;;5057305;28;20040;-58
2024/04/04 01:12:10;;;;;;;10.70;2.15;;;;;;;;;;5058053;28;20021;-58
2024/04/04 01:14:35;;;;;;;11.80;2.30;;;;;;;;;;5057052;28;20010;-58
2024/04/04 01:17:01;;;;;;;11.32;1.90;;;;;;;;;;5056368;28;20025;-59
2024/04/04 01:19:26;;;;;;;7.63;1.48;;;;;;;;;;5039592;28;20123;-58
2024/04/04 01:21:51;;;;;;;9.43;2.20;;;;;;;;;;5057107;28;20013;-58
2024/04/04 01:24:16;;;;;;;9.35;2.28;;;;;;;;;;5057114;28;20100;-59
2024/04/04 01:26:41;;;;;;;9.98;2.03;;;;;;;;;;5056858;28;20016;-58
2024/04/04 01:29:07;;;;;;;7.88;1.98;;;;;;;;;;5057264;28;20056;-56
2024/04/04 01:31:32;;;;;;;12.02;2.17;;;;;;;;;;5057008;28;20056;-58
2024/04/04 01:33:57;;;;;;;10.52;2.22;;;;;;;;;;5056841;28;20036;-59
2024/04/04 01:36:22;;;;;;;10.50;2.20;;;;;;;;;;5057527;28;20365;-58
2024/04/04 01:38:48;;;;;;;9.60;2.03;;;;;;;;;;5056811;28;20024;-58
2024/04/04 01:41:14;;;;;;;11.30;2.45;;;;;;;;;;5056952;28;20029;-59
2024/04/04 01:43:39;;;;;;;9.65;2.17;;;;;;;;;;5039038;28;20096;-57
2024/04/04 01:46:04;;;;;;;9.63;1.75;;;;;;;;;;5039409;28;20040;-58
2024/04/04 01:48:29;;;;;;;6.13;1.85;;;;;;;;;;5056475;28;20028;-56
2024/04/04 01:50:55;;;;;;;7.03;1.77;;;;;;;;;;5056446;28;20068;-59
2024/04/04 01:53:20;;;;;;;9.30;1.90;;;;;;;;;;5056536;28;20025;-56
2024/04/04 01:55:45;;;;;;;7.70;1.80;;;;;;;;;;5056497;28;20017;-56
2024/04/04 01:58:10;;;;;;;7.90;1.67;;;;;;;;;;5056596;28;20075;-59
2024/04/04 02:00:35;;;;;;;9.63;2.20;;;;;;;;;;5056290;28;20017;-57
2024/04/04 02:03:01;;;;;;;7.93;1.52;;;;;;;;;;5056199;28;20036;-59
2024/04/04 02:05:26;;;;;;;7.22;1.40;;;;;;;;;;5056321;28;20024;-58
2024/04/04 02:07:51;;;;;;;9.07;2.00;;;;;;;;;;5056214;28;20036;-56
2024/04/04 02:10:16;;;;;;;9.00;2.05;;;;;;;;;;5056144;28;20032;-58
2024/04/04 02:12:42;;;;;;;8.48;1.60;;;;;;;;;;5056004;28;20067;-59
2024/04/04 02:15:09;;;;;;;7.70;1.77;;;;;;;;;;5056117;28;20044;-58
2024/04/04 02:17:34;;;;;;;7.57;1.52;;;;;;;;;;5056037;28;20021;-59
2024/04/04 02:20:00;;;;;;;7.93;1.90;;;;;;;;;;5056016;28;20013;-59
2024/04/04 02:22:25;;;;;;;14.05;1.85;;;;;;;;;;5055941;28;20017;-58
2024/04/04 02:24:50;;;;;;;8.95;2.63;;;;;;;;;;5055799;28;20104;-58
2024/04/04 02:27:15;;;;;;;8.65;1.70;;;;;;;;;;5055838;28;20099;-59
2024/04/04 02:29:41;;;;;;;6.20;1.55;;;;;;;;;;5055653;28;20065;-59
2024/04/04 02:32:06;;;;;;;8.57;1.98;;;;;;;;;;5055762;28;20082;-58
2024/04/04 02:34:32;;;;;;;9.32;1.88;;;;;;;;;;5056199;28;20032;-58
2024/04/04 02:36:57;;;;;;;8.38;2.00;;;;;;;;;;5056162;28;20086;-58
2024/04/04 02:39:25;;;;;;;9.10;2.05;;;;;;;;;;5055545;28;20438;-58
2024/04/04 02:41:50;;;;;;;7.38;2.10;;;;;;;;;;5055678;28;20051;-58
2024/04/04 02:44:15;;;;;;;8.13;1.83;;;;;;;;;;5055277;28;20021;-58
2024/04/04 02:46:40;;;;;;;7.63;1.80;;;;;;;;;;5055503;28;20029;-58
2024/04/04 02:49:05;;;;;;;6.78;1.58;;;;;;;;;;5055249;28;20032;-58
2024/04/04 02:51:32;;;;;;;8.43;2.10;;;;;;;;;;5055342;28;20353;-59
2024/04/04 02:53:58;;;;;;;9.57;1.95;;;;;;;;;;5055354;28;20024;-59
2024/04/04 02:56:23;;;;;;;7.28;2.00;;;;;;;;;;5055249;28;20358;-58
2024/04/04 02:58:48;;;;;;;7.35;1.70;;;;;;;;;;5054967;28;20357;-58
2024/04/04 03:01:13;;;;;;;8.07;1.58;;;;;;;;;;5069243;23;20055;-89
2024/04/04 03:03:38;;;;;;;7.95;1.90;;;;;;;;;;5056013;28;20104;-89
2024/04/04 03:06:04;;;;;;;6.05;1.70;;;;;;;;;;5038548;28;20090;-90
2024/04/04 03:08:29;;;;;;;10.43;1.92;;;;;;;;;;5056069;28;20036;-89
2024/04/04 03:10:54;;;;;;;8.73;2.15;;;;;;;;;;5038509;28;20024;-90
2024/04/04 03:13:19;;;;;;;8.82;2.17;;;;;;;;;;5038657;28;20021;-90
2024/04/04 03:15:57;;;;;;;11.13;2.00;;;;;;;;;;5038321;28;20568;-90
2024/04/04 03:18:23;;;;;;;11.32;1.98;;;;;;;;;;5056554;28;20028;-90
2024/04/04 03:20:48;;;;;;;10.23;2.10;;;;;;;;;;5038607;28;20025;-90
2024/04/04 03:23:13;;;;;;;10.27;2.20;;;;;;;;;;5038237;28;20024;-90
2024/04/04 03:25:39;;;;;;;10.13;2.33;;;;;;;;;;5056327;28;20112;-90
2024/04/04 03:28:04;;;;;;;9.63;2.67;;;;;;;;;;5038118;28;20115;-90
2024/04/04 03:30:29;;;;;;;5.93;1.70;;;;;;;;;;5037986;28;20040;-90
2024/04/04 03:32:56;;;;;;;8.02;2.17;;;;;;;;;;5038350;28;20025;-89
2024/04/04 03:35:22;;;;;;;7.45;2.00;;;;;;;;;;5055685;28;20017;-90
2024/04/04 03:37:50;;;;;;;8.15;1.90;;;;;;;;;;5055308;28;21799;-89
2024/04/04 03:40:17;;;;;;;8.00;2.45;;;;;;;;;;5055155;28;20025;-89
2024/04/04 03:42:43;;;;;;;8.95;2.00;;;;;;;;;;5038004;28;20090;-89
2024/04/04 03:45:09;;;;;;;8.73;1.90;;;;;;;;;;5058089;28;20048;-90
2024/04/04 03:47:35;;;;;;;10.38;2.33;;;;;;;;;;5057661;28;20058;-89
2024/04/04 03:50:01;;;;;;;12.00;2.13;;;;;;;;;;5038114;28;20115;-90
2024/04/04 03:52:28;;;;;;;7.65;2.13;;;;;;;;;;5055367;28;20025;-90
2024/04/04 03:54:55;;;;;;;10.18;2.30;;;;;;;;;;5055430;28;20060;-89
2024/04/04 03:57:21;;;;;;;7.93;1.80;;;;;;;;;;5037950;28;20043;-90
2024/04/04 03:59:47;;;;;;;9.82;2.65;;;;;;;;;;5055685;28;20021;-89
2024/04/04 04:02:14;;;;;;;10.88;2.20;;;;;;;;;;5069069;22;20059;-58
2024/04/04 04:04:40;;;;;;;7.40;1.70;;;;;;;;;;5054699;28;20381;-59
2024/04/04 04:07:07;;;;;;;8.52;1.95;;;;;;;;;;5054732;28;20490;-58
2024/04/04 04:09:33;;;;;;;7.80;1.95;;;;;;;;;;5055409;28;20020;-59
2024/04/04 04:11:59;;;;;;;5.78;2.10;;;;;;;;;;5054685;28;20032;-59
2024/04/04 04:14:26;;;;;;;11.00;2.22;;;;;;;;;;5054659;28;20017;-58
2024/04/04 04:16:52;;;;;;;6.57;1.90;;;;;;;;;;5054556;28;20021;-56
2024/04/04 04:19:19;;;;;;;7.82;2.25;;;;;;;;;;5054593;28;20028;-58
2024/04/04 04:21:44;;;;;;;10.82;2.47;;;;;;;;;;5054750;28;20025;-58
2024/04/04 04:24:11;;;;;;;9.00;2.35;;;;;;;;;;5054486;28;20048;-57
2024/04/04 04:26:37;;;;;;;6.05;1.95;;;;;;;;;;5054500;28;20430;-59
2024/04/04 04:29:04;;;;;;;9.77;2.40;;;;;;;;;;5054782;28;20067;-59
2024/04/04 04:31:32;;;;;;;7.13;2.25;;;;;;;;;;5054477;28;20036;-56
2024/04/04 04:34:00;;;;;;;6.15;1.98;;;;;;;;;;5054438;28;20021;-57
2024/04/04 04:36:27;;;;;;;9.50;2.47;;;;;;;;;;5054325;28;20032;-56
2024/04/04 04:38:53;;;;;;;8.93;2.50;;;;;;;;;;5054365;28;20048;-58
2024/04/04 04:41:20;;;;;;;11.00;2.42;;;;;;;;;;5054337;28;20021;-55
2024/04/04 04:43:47;;;;;;;6.93;2.40;;;;;;;;;;5036789;28;20060;-59
2024/04/04 04:46:13;;;;;;;9.63;2.40;;;;;;;;;;5037310;28;20063;-59
2024/04/04 04:48:40;;;;;;;9.20;2.60;;;;;;;;;;5054160;28;20020;-58
2024/04/04 04:51:07;;;;;;;8.85;2.70;;;;;;;;;;5055216;28;20109;-58
2024/04/04 04:53:34;;;;;;;8.70;2.20;;;;;;;;;;5058336;28;20037;-59
2024/04/04 04:56:00;;;;;;;7.57;2.22;;;;;;;;;;5057888;28;20021;-59
2024/04/04 04:58:26;;;;;;;6.72;2.22;;;;;;;;;;5057971;28;20096;-58
2024/04/04 05:00:53;;;;;;;9.23;2.67;;;;;;;;;;5039848;28;20473;-58
2024/04/04 05:03:23;;;;;;;9.60;2.65;;;;;;;;;;5057880;28;20064;-59
2024/04/04 05:05:54;;;;;;;7.90;2.53;;;;;;;;;;5039957;28;20130;-58
2024/04/04 05:08:20;;;;;;;;;;;;;;;;;;5058205;28;20040;-57
2024/04/04 05:10:47;;;;;;;7.40;2.25;;;;;;;;;;5057955;28;19908;-58
2024/04/04 05:13:13;;;;;;;8.32;2.65;;;;;;;;;;5057731;28;20083;-58
2024/04/04 05:15:55;;;;;;;9.50;2.80;;;;;;;;;;5040333;28;20025;-58
2024/04/04 05:18:22;;;;;;;9.98;2.50;;;;;;;;;;5057616;28;20434;-57
2024/04/04 05:20:48;;;;;;;9.25;2.20;;;;;;;;;;5058076;28;20078;-59
2024/04/04 05:23:14;;;;;;;9.15;2.53;;;;;;;;;;5057812;28;20033;-59
2024/04/04 05:25:41;;;;;;;9.13;2.60;;;;;;;;;;5056950;28;20021;-57
2024/04/04 05:28:07;;;;;;;8.82;2.60;;;;;;;;;;5057436;28;20564;-53
2024/04/04 05:30:34;;;;;;;6.15;2.17;;;;;;;;;;5057259;28;20021;-57
2024/04/04 05:33:01;;;;;;;5.65;2.47;;;;;;;;;;5057600;28;20017;-54
2024/04/04 05:35:28;;;;;;;6.95;2.45;;;;;;;;;;5057181;28;20041;-59
2024/04/04 05:37:55;;;;;;;6.30;2.50;;;;;;;;;;5057419;28;20033;-57
2024/04/04 05:40:23;;;;;;;6.80;2.58;;;;;;;;;;5057159;28;20437;-59
2024/04/04 05:42:50;;;;;;;10.23;2.70;;;;;;;;;;5056339;28;20059;-57
2024/04/04 05:45:16;;;;;;;9.43;3.17;;;;;;;;;;5057122;28;20353;-60
2024/04/04 05:47:43;;;;;;;12.60;2.97;;;;;;;;;;5056974;28;20033;-60
2024/04/04 05:50:09;;;;;;;12.38;3.45;;;;;;;;;;5057069;28;20111;-59
2024/04/04 05:52:36;;;;;;;7.18;2.50;;;;;;;;;;5056921;28;20017;-60
2024/04/04 05:55:03;;;;;;;10.38;2.90;;;;;;;;;;5056888;28;20086;-60
2024/04/04 05:57:29;;;;;;;8.55;3.13;;;;;;;;;;5056666;28;20020;-60
2024/04/04 05:59:55;;;;;;;8.00;2.85;;;;;;;;;;5052913;28;20450;-60
2024/04/04 06:02:22;;;;;;;7.82;2.50;;;;;;;;;;5056233;28;20083;-60
2024/04/04 06:04:50;;;;;;;5.80;2.72;;;;;;;;;;5057041;28;20322;-61
2024/04/04 06:07:16;;;;;;;8.25;2.90;;;;;;;;;;5056954;28;20458;-60
2024/04/04 06:09:44;;;;;;;10.93;2.50;;;;;;;;;;5056887;28;20107;-61
2024/04/04 06:12:10;;;;;;;7.28;2.55;;;;;;;;;;5056153;28;20025;-61
2024/04/04 06:14:38;;;;;;;11.60;2.90;;;;;;;;;;5056811;28;20029;-61
2024/04/04 06:17:04;;;;;;;10.93;2.70;;;;;;;;;;5056509;28;20045;-61
2024/04/04 06:19:30;;;;;;;9.57;2.90;;;;;;;;;;5056230;28;20017;-61
2024/04/04 06:21:57;;;;;;;9.32;3.00;;;;;;;;;;5056092;28;20040;-62
2024/04/04 06:24:23;;;;;;;7.93;2.60;;;;;;;;;;5056308;28;20442;-62
2024/04/04 06:26:50;;;;;;;7.32;2.75;;;;;;;;;;5056329;28;20508;-62
2024/04/04 06:29:18;;;;;;;8.52;2.85;;;;;;;;;;5056738;28;20040;-60
2024/04/04 06:31:45;;;;;;;7.47;2.70;;;;;;;;;;5055999;28;20040;-60
2024/04/04 06:34:12;;;;;;;7.82;2.58;;;;;;;;;;5056410;28;20350;-60
2024/04/04 06:36:37;;;;;;;8.02;2.80;;;;;;;;;;5056075;28;20020;-60
2024/04/04 06:39:04;;;;;;;9.02;2.72;;;;;;;;;;5056039;28;20028;-61
2024/04/04 06:41:29;;;;;;;11.70;2.75;;;;;;;;;;5055857;28;20033;-60
2024/04/04 06:43:54;;;;;;;9.73;2.78;;;;;;;;;;5055657;28;20035;-60
2024/04/04 06:46:20;;;;;;;8.30;2.88;;;;;;;;;;5055733;28;20056;-60
2024/04/04 06:48:45;;;;;;;10.05;2.72;;;;;;;;;;5055882;28;20103;-60
2024/04/04 06:51:11;;;;;;;7.82;2.80;;;;;;;;;;5055653;28;20024;-61
2024/04/04 06:53:42;;;;;;;9.63;2.65;;;;;;;;;;5055511;28;20025;-61
2024/04/04 06:56:07;;;;;;;12.10;2.70;;;;;;;;;;5056199;28;20346;-61
2024/04/04 06:58:33;;;;;;;8.32;2.40;;;;;;;;;;5056007;28;20020;-60
2024/04/04 07:00:58;;;;;;;12.52;2.90;;;;;;;;;;5055643;28;20033;-60
2024/04/04 07:03:24;;;;;;;9.57;2.67;;;;;;;;;;5037944;28;20024;-61
2024/04/04 07:05:51;;;;;;;11.30;2.72;;;;;;;;;;5055117;28;20433;-61
2024/04/04 07:08:16;;;;;;;6.95;2.25;;;;;;;;;;5055149;28;20071;-60
2024/04/04 07:10:42;;;;;;;10.48;2.40;;;;;;;;;;5055545;28;20079;-60
2024/04/04 07:13:07;;;;;;;8.50;2.85;;;;;;;;;;5054732;28;20024;-60
2024/04/04 07:15:33;;;;;;;11.40;2.80;;;;;;;;;;5053707;28;20017;-60
2024/04/04 07:17:58;;;;;;;13.93;3.15;;;;;;;;;;5055417;28;20029;-60
2024/04/04 07:20:24;;;;;;;11.65;3.05;;;;;;;;;;5055269;28;20358;-58
2024/04/04 07:22:49;;;;;;;9.85;2.80;;;;;;;;;;5055274;28;20021;-58
2024/04/04 07:25:16;;;;;;;11.45;2.92;;;;;;;;;;5055160;28;20021;-60
2024/04/04 07:27:41;;;;;;;11.70;2.55;;;;;;;;;;5054748;28;20053;-60
2024/04/04 07:30:07;;;;;;;11.43;2.60;;;;;;;;;;5054985;28;20032;-60
2024/04/04 07:32:34;;;;;;;12.25;2.80;;;;;;;;;;5055098;28;20013;-59
2024/04/04 07:35:01;;;;;;;8.45;2.45;;;;;;;;;;5055027;28;20100;-61
2024/04/04 07:37:28;;;;;;;12.52;2.60;;;;;;;;;;5054955;28;20013;-60
2024/04/04 07:39:56;;;;;;;10.63;2.92;;;;;;;;;;5054889;28;20096;-61
2024/04/04 07:42:23;;;;;;;8.75;2.85;;;;;;;;;;5054963;28;20461;-61
2024/04/04 07:44:50;;;;;;;13.25;3.53;;;;;;;;;;5055102;28;20027;-61
2024/04/04 07:47:16;;;;;;;7.95;2.78;;;;;;;;;;5055241;28;20017;-61
2024/04/04 07:49:41;;;;;;;10.70;3.03;;;;;;;;;;5055185;28;20074;-61
2024/04/04 07:52:06;;;;;;;11.48;3.20;;;;;;;;;;5054587;28;20464;-61
2024/04/04 07:54:31;;;;;;;10.35;2.90;;;;;;;;;;5054813;28;20131;-61
2024/04/04 07:56:56;;;;;;;12.57;2.85;;;;;;;;;;5055139;28;20104;-60
2024/04/04 07:59:22;;;;;;;12.85;2.05;;;;;;;;;;5054748;28;20017;-61
2024/04/04 08:01:49;;;;;;;8.98;2.10;;;;;;;;;;5054540;28;20029;-61
2024/04/04 08:04:14;;;;;;;9.27;3.08;;;;;;;;;;5054515;28;20039;-61
2024/04/04 08:06:39;;;;;;;10.27;2.38;;;;;;;;;;5054695;28;20021;-62
2024/04/04 08:09:07;;;;;;;8.68;2.75;;;;;;;;;;5054702;28;20434;-61
2024/04/04 08:11:32;;;;;;;13.05;3.22;;;;;;;;;;5054325;28;20439;-61
2024/04/04 08:13:57;;;;;;;8.18;2.15;;;;;;;;;;5054702;28;20021;-61
2024/04/04 08:16:23;;;;;;;10.20;2.30;;;;;;;;;;5054680;28;20107;-61
2024/04/04 08:18:48;;;;;;;7.68;2.00;;;;;;;;;;5054646;28;20060;-61
2024/04/04 08:21:14;;;;;;;8.90;1.88;;;;;;;;;;5054408;28;20082;-61
2024/04/04 08:23:39;;;;;;;8.63;1.55;;;;;;;;;;5054673;28;20468;-61
2024/04/04 08:26:04;;;;;;;4.20;1.17;;;;;;;;;;5057021;28;20025;-61
2024/04/04 08:28:30;;;;;;;5.78;1.33;;;;;;;;;;5058986;28;20064;-62
2024/04/04 08:31:02;;;;;;;6.32;1.60;;;;;;;;;;5058124;28;20024;-61
2024/04/04 08:33:28;;;;;;;7.25;1.60;;;;;;;;;;5058777;28;20353;-62
2024/04/04 08:35:53;;;;;;;7.47;1.40;;;;;;;;;;5058724;28;20021;-63
2024/04/04 08:38:19;;;;;;;5.45;1.20;;;;;;;;;;5040675;28;20103;-62
2024/04/04 08:40:44;;;;;;;3.58;1.20;;;;;;;;;;5058106;28;20028;-63
2024/04/04 08:43:10;;;;;;;3.10;1.33;;;;;;;;;;5058247;28;20133;-63
2024/04/04 08:45:47;;;;;;;4.07;1.10;;;;;;;;;;5058617;28;20033;-63
2024/04/04 08:48:16;;;;;;;3.50;1.08;;;;;;;;;;5057875;28;20025;-62
2024/04/04 08:50:47;;;;;;;5.63;1.20;;;;;;;;;;5040287;28;20120;-63
2024/04/04 08:53:12;;;;;;;;;;;;;;;;;;5042156;28;20106;-62
2024/04/04 08:55:38;;;;;;;2.17;0.70;;;;;;;;;;5058132;28;19908;-62
2024/04/04 08:58:03;;;;;;;4.03;1.00;;;;;;;;;;5058056;28;20255;-62
2024/04/04 09:00:28;;;;;;;2.92;0.80;;;;;;;;;;5057739;28;20401;-62
2024/04/04 09:02:53;;;;;;;3.17;1.00;;;;;;;;;;5058157;28;20499;-62
2024/04/04 09:05:19;;;;;;;2.92;0.90;;;;;;;;;;5057855;28;20122;-62
2024/04/04 09:07:44;;;;;;;3.10;1.08;;;;;;;;;;5057476;28;20029;-62
2024/04/04 09:10:13;;;;;;;3.35;1.02;;;;;;;;;;5057701;28;20452;-62
2024/04/04 09:12:38;;;;;;;3.10;0.90;;;;;;;;;;5057766;28;20060;-62
2024/04/04 09:15:04;;;;;;;2.33;0.90;;;;;;;;;;5057700;28;20393;-62
2024/04/04 09:17:30;;;;;;;3.40;0.90;;;;;;;;;;5057440;28;20020;-61
2024/04/04 09:19:55;;;;;;;2.70;0.80;;;;;;;;;;5057562;28;20020;-62
2024/04/04 09:22:21;;;;;;;2.78;0.80;;;;;;;;;;5057379;28;20021;-62
2024/04/04 09:24:46;;;;;;;2.65;0.90;;;;;;;;;;5057506;28;20024;-62
2024/04/04 09:27:17;;;;;;;5.00;1.00;;;;;;;;;;5057288;28;20025;-62
2024/04/04 09:29:43;;;;;;;1.65;0.70;;;;;;;;;;5057483;28;20055;-60
2024/04/04 09:32:08;;;;;;;4.68;0.80;;;;;;;;;;5057492;28;20412;-61
2024/04/04 09:34:34;;;;;;;1.75;0.80;;;;;;;;;;5057091;28;20044;-61
2024/04/04 09:37:00;;;;;;;1.55;0.60;;;;;;;;;;5056415;28;20323;-61
2024/04/04 09:39:25;;;;;;;10.52;5.85;;;;;;;;;;5057250;28;20078;-62
2024/04/04 09:41:50;;;;;;;4.25;1.50;;;;;;;;;;5057427;28;20025;-60
2024/04/04 09:44:16;;;;;;;5.53;0.90;;;;;;;;;;5057116;28;20095;-61
2024/04/04 09:46:41;;;;;;;1.42;0.70;;;;;;;;;;5056999;28;20472;-60
2024/04/04 09:49:06;;;;;;;4.97;0.82;;;;;;;;;;5057083;28;20013;-62
2024/04/04 09:51:32;;;;;;;4.53;1.00;;;;;;;;;;5056913;28;20063;-61
2024/04/04 09:53:58;;;;;;;3.00;1.02;;;;;;;;;;5057257;28;20036;-61
2024/04/04 09:56:23;;;;;;;3.47;0.77;;;;;;;;;;5056882;28;20023;-61
2024/04/04 09:58:49;;;;;;;5.47;1.13;;;;;;;;;;5057112;28;20442;-61
2024/04/04 10:01:21;;;;;;;3.53;0.73;;;;;;;;;;5056784;28;20031;-60
2024/04/04 10:03:47;;;;;;;3.65;0.95;;;;;;;;;;5056894;28;20532;-60
2024/04/04 10:06:29;;;;;;;4.78;1.00;;;;;;;;;;5056760;28;20029;-60
2024/04/04 10:08:56;;;;;;;8.23;1.60;;;;;;;;;;5056985;28;20035;-59
2024/04/04 10:11:28;;;;;;;2.33;0.90;;;;;;;;;;5056896;28;20032;-60
2024/04/04 10:13:53;;;;;;;3.65;1.02;;;;;;;;;;5056618;28;20025;-60
2024/04/04 10:16:38;;;;;;;3.83;0.85;;;;;;;;;;5056527;28;20017;-60
2024/04/04 10:19:36;;;;;;;2.75;0.82;;;;;;;;;;5055538;28;20094;-60
2024/04/04 10:22:04;;;;;;;5.00;1.10;;;;;;;;;;5023081;28;20048;-60
2024/04/04 10:24:30;;;;;;;4.18;1.08;;;;;;;;;;5056413;28;20020;-60
2024/04/04 10:27:00;;;;;;;3.10;0.90;;;;;;;;;;5056062;28;20350;-61
2024/04/04 10:29:30;;;;;;;3.15;0.98;;;;;;;;;;5056300;28;20021;-60
2024/04/04 10:31:55;;;;;;;5.00;1.10;;;;;;;;;;5056512;28;20072;-60
2024/04/04 10:34:20;;;;;;;4.15;1.10;;;;;;;;;;5056217;28;20457;-59
2024/04/04 10:36:45;;;;;;;5.95;1.30;;;;;;;;;;5055988;28;20044;-61
2024/04/04 10:39:16;;;;;;;6.03;1.10;;;;;;;;;;5055957;28;20013;-60
2024/04/04 10:41:43;;;;;;;6.28;1.20;;;;;;;;;;5056416;28;20068;-61
2024/04/04 10:44:13;;;;;;;6.25;1.45;;;;;;;;;;5056068;28;20029;-60
2024/04/04 10:46:39;;;;;;;5.38;1.40;;;;;;;;;;5056211;28;20021;-61
2024/04/04 10:49:04;;;;;;;8.05;1.10;;;;;;;;;;5054156;28;20408;-60
2024/04/04 10:51:29;;;;;;;7.97;1.40;;;;;;;;;;5055290;28;20020;-60
2024/04/04 10:53:56;;;;;;;7.70;1.50;;;;;;;;;;5055524;28;20029;-60
2024/04/04 10:56:23;;;;;;;5.95;1.17;;;;;;;;;;5055771;28;20149;-60
2024/04/04 10:58:48;;;;;;;8.57;1.30;;;;;;;;;;5055785;28;20021;-60
2024/04/04 11:01:15;;;;;;;5.97;1.27;;;;;;;;;;5055520;28;20543;-61
2024/04/04 11:03:40;;;;;;;6.32;1.42;;;;;;;;;;5055173;28;20115;-61
2024/04/04 11:06:05;;;;;;;5.82;1.50;;;;;;;;;;5055255;28;20432;-60
2024/04/04 11:08:30;;;;;;;4.70;1.40;;;;;;;;;;5055648;28;20441;-60
2024/04/04 11:10:55;;;;;;;5.47;1.10;;;;;;;;;;5055388;28;20031;-61
2024/04/04 11:13:21;;;;;;;5.22;1.33;;;;;;;;;;5055631;28;20040;-60
2024/04/04 11:15:47;;;;;;;4.93;1.40;;;;;;;;;;5055923;28;20061;-61
2024/04/04 11:18:12;;;;;;;7.68;1.50;;;;;;;;;;5055507;28;20067;-61
2024/04/04 11:20:37;;;;;;;4.90;1.20;;;;;;;;;;5055335;28;20107;-61
2024/04/04 11:23:03;;;;;;;3.95;1.10;;;;;;;;;;5055132;28;20057;-61
2024/04/04 11:25:29;;;;;;;5.47;1.10;;;;;;;;;;5055297;28;20059;-61
2024/04/04 11:27:54;;;;;;;6.35;2.10;;;;;;;;;;5054845;28;20036;-61
2024/04/04 11:30:19;;;;;;;6.15;2.30;;;;;;;;;;5055092;28;20115;-61
2024/04/04 11:32:45;;;;;;;5.47;1.20;;;;;;;;;;5054782;28;20021;-61
2024/04/04 11:35:10;;;;;;;3.17;0.90;;;;;;;;;;5055179;28;20025;-61
2024/04/04 11:37:35;;;;;;;2.40;0.90;;;;;;;;;;5055072;28;20422;-61
2024/04/04 11:40:01;;;;;;;3.90;1.15;;;;;;;;;;5055099;28;20394;-61
2024/04/04 11:42:26;;;;;;;6.43;1.10;;;;;;;;;;5055033;28;20449;-61
2024/04/04 11:44:52;;;;;;;5.50;1.60;;;;;;;;;;5054917;28;20442;-61
2024/04/04 11:47:17;;;;;;;6.00;1.40;;;;;;;;;;5054885;28;20070;-61
2024/04/04 11:49:42;;;;;;;3.45;0.93;;;;;;;;;;5054866;28;20036;-61
2024/04/04 11:52:07;;;;;;;4.65;1.02;;;;;;;;;;5054717;28;20025;-61
2024/04/04 11:54:32;;;;;;;5.18;0.95;;;;;;;;;;5054847;28;20017;-61
2024/04/04 11:56:58;;;;;;;8.80;2.10;;;;;;;;;;5055073;28;20096;-61
2024/04/04 11:59:24;;;;;;;4.18;1.00;;;;;;;;;;5054899;28;20104;-60
2024/04/04 12:01:50;;;;;;;3.78;1.02;;;;;;;;;;5054536;28;20016;-60
2024/04/04 12:04:15;;;;;;;4.88;1.15;;;;;;;;;;5054514;28;20082;-60
2024/04/04 12:06:40;;;;;;;2.80;0.93;;;;;;;;;;5054399;28;20056;-60
2024/04/04 12:09:09;;;;;;;4.10;0.80;;;;;;;;;;5054727;28;20049;-60
2024/04/04 12:11:35;;;;;;;3.83;0.93;;;;;;;;;;5054595;28;20438;-60
2024/04/04 12:14:01;;;;;;;2.90;0.90;;;;;;;;;;5054645;28;20029;-60
2024/04/04 12:16:27;;;;;;;3.78;1.27;;;;;;;;;;5054303;28;20028;-60
2024/04/04 12:21:37;;;;;;;5.15;1.10;;;;;;;;;;5055021;28;20404;-61
2024/04/04 12:24:02;;;;;;;2.72;0.88;;;;;;;;;;5054461;28;20021;-62
2024/04/04 12:26:29;;;;;;;6.70;1.50;;;;;;;;;;5054313;28;20108;-61
2024/04/04 12:28:54;;;;;;;5.30;1.20;;;;;;;;;;5054563;28;20024;-61
2024/04/04 12:31:20;;;;;;;7.10;1.90;;;;;;;;;;5054396;28;20036;-60
2024/04/04 12:33:45;;;;;;;9.73;1.60;;;;;;;;;;5054437;28;20028;-61
2024/04/04 12:36:10;;;;;;;8.48;2.05;;;;;;;;;;5054107;28;20108;-60
2024/04/04 12:38:36;;;;;;;5.72;1.80;;;;;;;;;;5054673;28;20021;-61
2024/04/04 12:41:02;;;;;;;10.50;1.70;;;;;;;;;;5054908;28;20361;-61
2024/04/04 12:43:27;;;;;;;9.25;1.80;;;;;;;;;;5054258;28;20025;-60
2024/04/04 12:46:00;;;;;;;9.68;1.83;;;;;;;;;;5054147;28;20033;-60
2024/04/04 12:48:25;;;;;;;9.30;2.03;;;;;;;;;;5054192;28;20112;-59
2024/04/04 12:50:50;;;;;;;8.00;1.95;;;;;;;;;;5054242;28;20505;-59
2024/04/04 12:53:15;;;;;;;11.13;2.67;;;;;;;;;;5054393;28;20323;-59
2024/04/04 12:55:41;;;;;;;10.70;2.03;;;;;;;;;;5054109;28;20450;-60
2024/04/04 12:58:06;;;;;;;10.13;2.22;;;;;;;;;;5054746;28;20024;-60
2024/04/04 13:00:31;;;;;;;7.60;1.90;;;;;;;;;;5051556;28;20107;-60
2024/04/04 13:02:56;;;;;;;8.30;1.80;;;;;;;;;;5053202;28;20162;-59
2024/04/04 13:05:21;;;;;;;9.35;2.20;;;;;;;;;;5052931;28;20033;-59
2024/04/04 13:07:47;;;;;;;8.85;2.47;;;;;;;;;;5052802;28;20028;-59
2024/04/04 13:10:12;;;;;;;6.82;1.80;;;;;;;;;;5052852;28;20032;-59
2024/04/04 13:12:37;;;;;;;8.98;1.90;;;;;;;;;;5037459;28;20021;-59
2024/04/04 13:15:02;;;;;;;6.85;1.60;;;;;;;;;;5056716;28;20100;-59
2024/04/04 13:17:28;;;;;;;7.63;1.80;;;;;;;;;;5057253;28;20139;-59
2024/04/04 13:19:53;;;;;;;7.00;1.92;;;;;;;;;;5057141;28;20017;-59
2024/04/04 13:22:18;;;;;;;5.75;1.90;;;;;;;;;;5057309;28;20438;-60
2024/04/04 13:24:44;;;;;;;6.95;1.60;;;;;;;;;;5057398;28;20100;-56
2024/04/04 13:27:10;;;;;;;5.13;1.70;;;;;;;;;;5057573;28;20028;-59
2024/04/04 13:29:36;;;;;;;7.32;1.50;;;;;;;;;;5057750;28;20021;-58
2024/04/04 13:32:02;;;;;;;4.20;1.40;;;;;;;;;;5057223;28;20472;-60
2024/04/04 13:34:29;;;;;;;5.10;1.38;;;;;;;;;;5058168;28;20029;-59
2024/04/04 13:36:55;;;;;;;5.55;1.65;;;;;;;;;;5039756;28;20401;-58
2024/04/04 13:39:22;;;;;;;6.88;1.75;;;;;;;;;;5057298;28;20465;-59
2024/04/04 13:41:48;;;;;;;7.45;1.50;;;;;;;;;;5057229;28;20465;-59
2024/04/04 13:44:18;;;;;;;7.20;1.50;;;;;;;;;;5056992;28;20036;-59
2024/04/04 13:46:43;;;;;;;5.28;1.33;;;;;;;;;;5056670;28;20112;-58
2024/04/04 13:49:10;;;;;;;5.03;1.50;;;;;;;;;;5056944;28;20116;-59
2024/04/04 13:51:36;;;;;;;5.28;1.50;;;;;;;;;;5056917;28;20025;-59
2024/04/04 13:54:06;;;;;;;4.18;1.20;;;;;;;;;;5056924;28;20158;-58
2024/04/04 13:56:32;;;;;;;5.45;1.63;;;;;;;;;;5056953;28;20025;-59
2024/04/04 13:58:59;;;;;;;7.80;1.75;;;;;;;;;;5056909;28;20024;-57
2024/04/04 14:01:31;;;;;;;4.47;1.40;;;;;;;;;;5056651;28;20013;-58
2024/04/04 14:03:56;;;;;;;7.50;1.95;;;;;;;;;;5056958;28;20040;-58
2024/04/04 14:06:23;;;;;;;6.25;1.58;;;;;;;;;;5056821;28;20021;-58
2024/04/04 14:08:49;;;;;;;8.27;1.83;;;;;;;;;;5056750;28;20374;-58
2024/04/04 14:11:14;;;;;;;8.25;1.60;;;;;;;;;;5056644;28;20021;-58
2024/04/04 14:13:39;;;;;;;6.30;1.83;;;;;;;;;;5056627;28;20017;-56
2024/04/04 14:16:06;;;;;;;8.50;1.80;;;;;;;;;;5056478;28;20021;-58
2024/04/04 14:18:32;;;;;;;7.95;1.67;;;;;;;;;;5056776;28;20017;-57
2024/04/04 14:20:57;;;;;;;7.43;2.35;;;;;;;;;;5056540;28;20353;-58
2024/04/04 14:23:22;;;;;;;13.63;2.20;;;;;;;;;;5056230;28;20092;-58
2024/04/04 14:25:47;;;;;;;7.60;2.17;;;;;;;;;;5056368;28;20024;-59
2024/04/04 14:28:12;;;;;;;7.45;1.60;;;;;;;;;;5056310;28;20013;-59
2024/04/04 14:30:38;;;;;;;9.13;2.25;;;;;;;;;;5056184;28;20457;-58
2024/04/04 14:33:03;;;;;;;11.60;1.90;;;;;;;;;;5056306;28;20036;-58
2024/04/04 14:35:29;;;;;;;8.30;1.88;;;;;;;;;;5056231;28;20013;-58
2024/04/04 14:37:56;;;;;;;7.50;1.63;;;;;;;;;;5056440;28;20024;-57